Vidfoss — V2QK4 — position and weather

sailwx.info

Track history (hours):
 
Tides and Currents Weather Stations Pressure Air Temp Water Temp Dewpoint Dewpoint Depression Visibility Wind Speed Wind Dir Waves Ship Positions

Vidfoss

Last reported at 2014-Sep-22 23:34 UTC. Time now 2014-Sep-23 00:20 UTC.
Position N 52°44' E 004°28'.

Length 93 m; draft 4.5 m.

Type: Cargo ship. MMSI: 305846000.

Date/timePositionNaut miles runAvg speedWind from/ knotsBaromVisibWave heightAir tempDewpointWater temp
2014-Sep-22 23:34N 52°44' E 004°28'1111.3
2014-Sep-22 22:34N 52°33' E 004°29'7 6.5
2014-Sep-22 21:33N 52°28' E 004°36'2 2.4
2014-Sep-22 20:33N 52°28' E 004°40'0 0.0
2014-Sep-22 19:33N 52°28' E 004°40'0 0.0
2014-Sep-22 18:28N 52°28' E 004°40'0 0.0
2014-Sep-22 17:32N 52°28' E 004°40'0 0.0
2014-Sep-22 16:32N 52°28' E 004°40'0 0.0
2014-Sep-22 15:33N 52°28' E 004°40'0 0.0
2014-Sep-22 14:34N 52°28' E 004°40'0 0.0
2014-Sep-22 13:31N 52°28' E 004°40'0 0.0
2014-Sep-22 12:29N 52°28' E 004°40'0 0.0
2014-Sep-22 11:32N 52°28' E 004°40'0 0.0
2014-Sep-22 10:30N 52°28' E 004°40'0 0.0
2014-Sep-22 09:31N 52°28' E 004°40'0 0.0
2014-Sep-22 08:28N 52°28' E 004°40'0 0.0
2014-Sep-22 07:32N 52°28' E 004°40'0 0.0
2014-Sep-22 06:32N 52°28' E 004°40'0 0.0
2014-Sep-22 05:33N 52°28' E 004°40'0 0.0
2014-Sep-22 04:31N 52°28' E 004°40'0 0.0
2014-Sep-22 03:31N 52°28' E 004°40'0 0.0
2014-Sep-22 02:32N 52°28' E 004°40'0 0.0
2014-Sep-22 01:33N 52°28' E 004°40'0 0.0
2014-Sep-22 00:33N 52°28' E 004°40'3 2.9
2014-Sep-21 23:33N 52°28' E 004°35'6 6.5
2014-Sep-21 22:33N 52°33' E 004°29'1313.3
2014-Sep-21 21:33N 52°46' E 004°29'1414.1
2014-Sep-21 20:34N 53°01' E 004°30'5112.1
2014-Sep-21 16:18N 53°51' E 004°45'912.3
2014-Sep-21 15:33N 54°00' E 004°49'1212.4
2014-Sep-21 14:33N 54°12' E 004°56'1312.7
2014-Sep-21 13:31N 54°25' E 004°59'1412.8
2014-Sep-21 12:26N 54°39' E 005°04'24512.7
2014-Sep-20 17:07N 58°43' E 005°14'712.5
2014-Sep-20 16:33N 58°50' E 005°16'1413.5
2014-Sep-20 15:33N 59°04' E 005°19'1413.1
2014-Sep-20 14:29N 59°17' E 005°20'1011.2
2014-Sep-20 13:33N 59°27' E 005°13'  
2014-Sep-15 23:11N 69°33' E 018°44'711.8
2014-Sep-15 22:33N 69°39' E 018°58'1 0.7
2014-Sep-15 21:33N 69°40' E 018°58'0 0.1
2014-Sep-15 20:33N 69°39' E 018°58'2 1.9
2014-Sep-15 19:33N 69°38' E 018°57'0 0.0
2014-Sep-15 18:33N 69°38' E 018°57'0 0.0
2014-Sep-15 17:33N 69°38' E 018°57'0 0.0
2014-Sep-15 16:33N 69°38' E 018°57'0 0.0
2014-Sep-15 15:33N 69°38' E 018°57'0 0.0
2014-Sep-15 14:33N 69°38' E 018°57'0 0.0
2014-Sep-15 13:33N 69°38' E 018°57'0 0.0
2014-Sep-15 12:33N 69°38' E 018°57'0 0.0
2014-Sep-15 11:33N 69°38' E 018°57'2 1.9
2014-Sep-15 10:34N 69°39' E 018°58'0 0.0
2014-Sep-15 09:33N 69°39' E 018°58'0 0.0
2014-Sep-15 08:33N 69°39' E 018°58'0 0.0
2014-Sep-15 07:33N 69°39' E 018°58'0 0.0
2014-Sep-15 06:32N 69°39' E 018°58'0 0.0
2014-Sep-15 05:33N 69°39' E 018°58'0 0.0
2014-Sep-15 04:33N 69°39' E 018°58'0 0.0
2014-Sep-15 03:33N 69°39' E 018°58'0 0.0
2014-Sep-15 02:33N 69°39' E 018°58'3 3.4
2014-Sep-15 01:33N 69°36' E 018°55'4 0.6
2014-Sep-14 19:13N 69°32' E 018°53'224 5.6
2014-Sep-13 03:05N 66°32' E 012°58'713.5
2014-Sep-13 02:33N 66°25' E 012°59'  
Track history (hours):
 
Tides and Currents Weather Stations Pressure Air Temp Water Temp Dewpoint Dewpoint Depression Visibility Wind Speed Wind Dir Waves Ship Positions

Vidfoss

Last reported at 2014-Sep-22 23:34 UTC. Time now 2014-Sep-23 00:20 UTC.
Position N 52°44' E 004°28'.

Length 93 m; draft 4.5 m.

Type: Cargo ship. MMSI: 305846000.

Date/timePositionNaut miles runAvg speedWind from/ knotsBaromVisibWave heightAir tempDewpointWater temp
2014-Sep-22 23:34N 52°44' E 004°28'1111.3
2014-Sep-22 22:34N 52°33' E 004°29'7 6.5
2014-Sep-22 21:33N 52°28' E 004°36'2 2.4
2014-Sep-22 20:33N 52°28' E 004°40'0 0.0
2014-Sep-22 19:33N 52°28' E 004°40'0 0.0
2014-Sep-22 18:28N 52°28' E 004°40'0 0.0
2014-Sep-22 17:32N 52°28' E 004°40'0 0.0
2014-Sep-22 16:32N 52°28' E 004°40'0 0.0
2014-Sep-22 15:33N 52°28' E 004°40'0 0.0
2014-Sep-22 14:34N 52°28' E 004°40'0 0.0
2014-Sep-22 13:31N 52°28' E 004°40'0 0.0
2014-Sep-22 12:29N 52°28' E 004°40'0 0.0
2014-Sep-22 11:32N 52°28' E 004°40'0 0.0
2014-Sep-22 10:30N 52°28' E 004°40'0 0.0
2014-Sep-22 09:31N 52°28' E 004°40'0 0.0
2014-Sep-22 08:28N 52°28' E 004°40'0 0.0
2014-Sep-22 07:32N 52°28' E 004°40'0 0.0
2014-Sep-22 06:32N 52°28' E 004°40'0 0.0
2014-Sep-22 05:33N 52°28' E 004°40'0 0.0
2014-Sep-22 04:31N 52°28' E 004°40'0 0.0
2014-Sep-22 03:31N 52°28' E 004°40'0 0.0
2014-Sep-22 02:32N 52°28' E 004°40'0 0.0
2014-Sep-22 01:33N 52°28' E 004°40'0 0.0
2014-Sep-22 00:33N 52°28' E 004°40'3 2.9
2014-Sep-21 23:33N 52°28' E 004°35'6 6.5
2014-Sep-21 22:33N 52°33' E 004°29'1313.3
2014-Sep-21 21:33N 52°46' E 004°29'1414.1
2014-Sep-21 20:34N 53°01' E 004°30'5112.1
2014-Sep-21 16:18N 53°51' E 004°45'912.3
2014-Sep-21 15:33N 54°00' E 004°49'1212.4
2014-Sep-21 14:33N 54°12' E 004°56'1312.7
2014-Sep-21 13:31N 54°25' E 004°59'1412.8
2014-Sep-21 12:26N 54°39' E 005°04'24512.7
2014-Sep-20 17:07N 58°43' E 005°14'712.5
2014-Sep-20 16:33N 58°50' E 005°16'1413.5
2014-Sep-20 15:33N 59°04' E 005°19'1413.1
2014-Sep-20 14:29N 59°17' E 005°20'1011.2
2014-Sep-20 13:33N 59°27' E 005°13'  
2014-Sep-15 23:11N 69°33' E 018°44'711.8
2014-Sep-15 22:33N 69°39' E 018°58'1 0.7
2014-Sep-15 21:33N 69°40' E 018°58'0 0.1
2014-Sep-15 20:33N 69°39' E 018°58'2 1.9
2014-Sep-15 19:33N 69°38' E 018°57'0 0.0
2014-Sep-15 18:33N 69°38' E 018°57'0 0.0
2014-Sep-15 17:33N 69°38' E 018°57'0 0.0
2014-Sep-15 16:33N 69°38' E 018°57'0 0.0
2014-Sep-15 15:33N 69°38' E 018°57'0 0.0
2014-Sep-15 14:33N 69°38' E 018°57'0 0.0
2014-Sep-15 13:33N 69°38' E 018°57'0 0.0
2014-Sep-15 12:33N 69°38' E 018°57'0 0.0
2014-Sep-15 11:33N 69°38' E 018°57'2 1.9
2014-Sep-15 10:34N 69°39' E 018°58'0 0.0
2014-Sep-15 09:33N 69°39' E 018°58'0 0.0
2014-Sep-15 08:33N 69°39' E 018°58'0 0.0
2014-Sep-15 07:33N 69°39' E 018°58'0 0.0
2014-Sep-15 06:32N 69°39' E 018°58'0 0.0
2014-Sep-15 05:33N 69°39' E 018°58'0 0.0
2014-Sep-15 04:33N 69°39' E 018°58'0 0.0
2014-Sep-15 03:33N 69°39' E 018°58'0 0.0
2014-Sep-15 02:33N 69°39' E 018°58'3 3.4
2014-Sep-15 01:33N 69°36' E 018°55'4 0.6
2014-Sep-14 19:13N 69°32' E 018°53'224 5.6
2014-Sep-13 03:05N 66°32' E 012°58'713.5
2014-Sep-13 02:33N 66°25' E 012°59'  

Dump ship's entire track history